createdAt,value
2019-03-01T00:01:31.419Z,44.27
2019-03-01T00:04:03.461Z,44.23
2019-03-01T00:06:45.348Z,46.48
2019-03-01T00:09:32.349Z,43.30
2019-03-01T00:12:08.259Z,44.75
2019-03-01T00:14:53.912Z,45.63
2019-03-01T00:17:26.009Z,43.98
2019-03-01T00:19:58.243Z,45.10
2019-03-01T00:22:43.343Z,43.05
2019-03-01T00:25:24.119Z,43.98
2019-03-01T00:28:08.519Z,43.25
2019-03-01T00:30:55.404Z,42.08
2019-03-01T00:33:41.127Z,40.25
2019-03-01T00:36:16.477Z,38.95
2019-03-01T00:39:01.651Z,40.33
2019-03-01T00:41:32.504Z,38.50
2019-03-01T00:44:01.908Z,35.60
2019-03-01T00:46:29.609Z,40.30
2019-03-01T00:48:59.267Z,37.58
2019-03-01T00:51:27.084Z,39.23
2019-03-01T00:53:54.707Z,37.93
2019-03-01T00:56:22.581Z,38.40
2019-03-01T00:58:50.340Z,40.70
2019-03-01T01:01:21.151Z,40.12
2019-03-01T01:03:48.979Z,38.60
2019-03-01T01:06:16.361Z,39.60
2019-03-01T01:08:43.919Z,37.10
2019-03-01T01:11:11.627Z,39.10
2019-03-01T01:13:39.492Z,37.83
2019-03-01T01:16:06.855Z,38.28
2019-03-01T01:18:34.803Z,38.48
2019-03-01T01:21:02.497Z,37.45
2019-03-01T01:23:30.238Z,35.52
2019-03-01T01:25:57.801Z,37.23
2019-03-01T01:28:26.226Z,37.60
2019-03-01T01:30:53.772Z,38.05
2019-03-01T01:33:21.841Z,37.13
2019-03-01T01:35:49.453Z,40.20
2019-03-01T01:38:17.049Z,37.67
2019-03-01T01:40:44.935Z,37.70
2019-03-01T01:43:12.666Z,37.05
2019-03-01T01:45:40.135Z,37.40
2019-03-01T01:48:07.531Z,36.98
2019-03-01T01:50:34.810Z,39.53
2019-03-01T01:53:02.553Z,39.88
2019-03-01T01:55:30.016Z,36.05
2019-03-01T01:57:57.390Z,35.85
2019-03-01T02:00:24.985Z,40.67
2019-03-01T02:02:52.392Z,41.37
2019-03-01T02:05:19.971Z,41.37
2019-03-01T02:07:47.420Z,43.10
2019-03-01T02:10:15.095Z,39.55
2019-03-01T02:12:42.613Z,42.17
2019-03-01T02:15:12.640Z,38.95
2019-03-01T02:17:40.176Z,38.20
2019-03-01T02:20:09.078Z,40.33
2019-03-01T02:22:36.439Z,39.53
2019-03-01T02:25:04.212Z,41.18
2019-03-01T02:27:31.533Z,40.00
2019-03-01T02:29:59.176Z,38.58
2019-03-01T02:32:30.804Z,37.40
2019-03-01T02:34:58.704Z,41.92
2019-03-01T02:37:26.271Z,40.98
2019-03-01T02:39:53.812Z,40.10
2019-03-01T02:42:21.192Z,40.70
2019-03-01T02:44:48.501Z,38.60
2019-03-01T02:47:15.927Z,41.80
2019-03-01T02:49:43.388Z,41.28
2019-03-01T02:52:10.820Z,42.83
2019-03-01T02:54:38.290Z,42.62
2019-03-01T02:57:05.733Z,43.30
2019-03-01T02:59:33.105Z,41.70
2019-03-01T03:02:00.571Z,44.90
2019-03-01T03:04:28.119Z,44.63
2019-03-01T03:06:57.121Z,45.28
2019-03-01T03:09:24.454Z,47.00
2019-03-01T03:11:51.832Z,47.05
2019-03-01T03:14:19.528Z,45.78
2019-03-01T03:16:47.021Z,44.23
2019-03-01T03:19:14.417Z,46.85
2019-03-01T03:21:41.796Z,48.28
2019-03-01T03:24:09.269Z,45.85
2019-03-01T03:26:36.551Z,44.18
2019-03-01T03:29:03.949Z,46.08
2019-03-01T03:31:31.315Z,45.78
2019-03-01T03:33:58.738Z,47.70
2019-03-01T03:36:26.141Z,45.80
2019-03-01T03:38:53.563Z,44.53
2019-03-01T03:41:20.897Z,44.90
2019-03-01T03:43:48.305Z,44.30
2019-03-01T03:46:15.673Z,45.25
2019-03-01T03:48:42.989Z,42.60
2019-03-01T03:51:10.378Z,45.03
2019-03-01T03:53:37.749Z,45.35
2019-03-01T03:56:05.170Z,46.02
2019-03-01T03:58:32.866Z,44.33
2019-03-01T04:01:00.297Z,44.85
2019-03-01T04:03:27.789Z,40.45
2019-03-01T04:05:55.240Z,43.50
2019-03-01T04:08:22.591Z,47.40
2019-03-01T04:10:49.919Z,43.25
2019-03-01T04:13:17.191Z,45.17
2019-03-01T04:15:44.528Z,42.58
2019-03-01T04:18:11.910Z,41.60
2019-03-01T04:20:39.379Z,44.38
2019-03-01T04:23:06.729Z,42.98
2019-03-01T04:25:34.050Z,43.45
2019-03-01T04:28:01.331Z,40.83
2019-03-01T04:30:28.785Z,44.20
2019-03-01T04:32:56.151Z,47.73
2019-03-01T04:35:23.477Z,43.38
2019-03-01T04:37:50.759Z,42.83
2019-03-01T04:40:18.153Z,46.05
2019-03-01T04:42:45.459Z,43.05
2019-03-01T04:45:13.534Z,46.25
2019-03-01T04:47:41.315Z,44.20
2019-03-01T04:50:09.654Z,46.28
2019-03-01T04:52:37.122Z,46.35
2019-03-01T04:55:06.354Z,41.70
2019-03-01T04:57:33.682Z,45.90
2019-03-01T05:00:01.049Z,44.23
2019-03-01T05:02:28.481Z,45.50
2019-03-01T05:04:55.785Z,43.48
2019-03-01T05:07:23.191Z,52.38
2019-03-01T05:09:50.669Z,50.98
2019-03-01T05:12:18.018Z,44.73
2019-03-01T05:14:45.325Z,47.15
2019-03-01T05:17:12.627Z,45.03
2019-03-01T05:19:39.966Z,46.00
2019-03-01T05:22:07.363Z,60.28
2019-03-01T05:24:34.663Z,47.65
2019-03-01T05:27:01.987Z,49.80
2019-03-01T05:29:29.323Z,41.80
2019-03-01T05:31:56.626Z,43.60
2019-03-01T05:34:23.944Z,44.13
2019-03-01T05:36:51.233Z,44.83
2019-03-01T05:39:18.516Z,39.05
2019-03-01T05:41:45.834Z,40.78
2019-03-01T05:44:13.145Z,42.60
2019-03-01T05:46:40.587Z,41.73
2019-03-01T05:49:07.885Z,42.30
2019-03-01T05:51:35.190Z,44.40
2019-03-01T05:54:02.506Z,42.45
2019-03-01T05:56:29.868Z,41.88
2019-03-01T05:59:04.703Z,42.88
2019-03-01T06:01:33.705Z,44.00
2019-03-01T06:04:17.593Z,46.90
2019-03-01T06:14:59.760Z,42.03
2019-03-01T06:17:41.076Z,40.65
2019-03-01T07:34:19.887Z,40.25
2019-03-01T07:36:47.199Z,42.73
2019-03-01T07:39:14.862Z,40.33
2019-03-01T07:41:42.202Z,39.60
2019-03-01T07:44:09.519Z,39.03
2019-03-01T07:46:36.870Z,39.10
2019-03-01T08:13:52.763Z,40.52
2019-03-01T08:16:20.166Z,37.75
2019-03-01T08:18:47.434Z,41.10
2019-03-01T08:21:14.957Z,39.08
2019-03-01T08:23:42.407Z,40.83
2019-03-01T08:26:09.734Z,41.13
2019-03-01T08:28:37.033Z,38.75
2019-03-01T08:31:04.635Z,37.38
2019-03-01T08:33:32.108Z,36.68
2019-03-01T08:36:02.363Z,37.83
2019-03-01T08:38:28.891Z,38.63
2019-03-01T08:40:57.057Z,39.65
2019-03-01T08:43:24.408Z,41.70
2019-03-01T08:45:51.701Z,42.90
2019-03-01T08:48:19.071Z,50.50
2019-03-01T08:50:46.380Z,51.30
2019-03-01T08:53:15.147Z,54.03
2019-03-01T08:55:43.010Z,51.90
2019-03-01T08:58:10.326Z,50.92
2019-03-01T09:00:39.496Z,54.23
2019-03-01T09:03:16.307Z,53.30
2019-03-01T09:05:43.398Z,51.73
2019-03-01T09:08:10.791Z,52.88
2019-03-01T09:10:38.109Z,48.30
2019-03-01T09:13:07.017Z,55.28
2019-03-01T09:15:34.312Z,53.25
2019-03-01T09:18:02.179Z,55.00
2019-03-01T09:20:32.504Z,54.05
2019-03-01T09:22:58.593Z,53.17
2019-03-01T09:25:25.891Z,59.10
2019-03-01T09:27:53.191Z,51.48
2019-03-01T09:30:21.488Z,58.60
2019-03-01T09:32:48.854Z,61.37
2019-03-01T09:35:29.713Z,62.65
2019-03-01T09:37:56.775Z,67.00
2019-03-01T09:40:25.636Z,65.17
2019-03-01T09:42:53.129Z,64.72
2019-03-01T09:45:20.526Z,71.15
2019-03-01T09:47:47.815Z,71.57
2019-03-01T09:50:15.195Z,71.50
2019-03-01T09:52:42.520Z,67.65
2019-03-01T09:55:10.807Z,70.42
2019-03-01T09:57:38.162Z,63.02
2019-03-01T10:00:07.094Z,64.75
2019-03-01T10:02:34.398Z,63.48
2019-03-01T10:05:01.724Z,59.10
2019-03-01T10:07:29.110Z,60.70
2019-03-01T10:09:58.163Z,55.70
2019-03-01T10:12:41.074Z,56.53
2019-03-01T10:15:12.645Z,63.63
2019-03-01T10:17:43.014Z,64.47
2019-03-01T10:20:23.358Z,65.03
2019-03-01T10:22:50.819Z,59.93
2019-03-01T10:25:19.034Z,59.23
2019-03-01T10:27:47.319Z,60.20
2019-03-01T10:30:19.363Z,55.90
2019-03-01T10:32:46.712Z,55.15
2019-03-01T10:38:04.424Z,47.50
2019-03-01T10:40:31.524Z,45.23
2019-03-01T10:43:04.058Z,42.33
2019-03-01T10:45:31.406Z,41.02
2019-03-01T10:47:58.784Z,42.35
2019-03-01T10:50:26.370Z,40.55
2019-03-01T10:52:53.756Z,37.35
2019-03-01T10:55:21.319Z,39.13
2019-03-01T10:57:48.671Z,37.83
2019-03-01T11:00:17.674Z,34.92
2019-03-01T11:02:45.048Z,31.97
2019-03-01T11:05:12.380Z,36.00
2019-03-01T11:07:39.750Z,28.95
2019-03-01T11:10:08.670Z,28.25
2019-03-01T11:12:35.962Z,29.25
2019-03-01T11:15:03.589Z,27.45
2019-03-01T11:17:30.956Z,27.70
2019-03-01T11:19:58.460Z,27.20
2019-03-01T11:22:26.690Z,24.63
2019-03-01T11:24:53.984Z,27.45
2019-03-01T11:27:21.292Z,27.25
2019-03-01T11:29:49.374Z,26.75
2019-03-01T11:32:16.748Z,26.35
2019-03-01T11:34:44.044Z,26.23
2019-03-01T11:37:11.356Z,24.52
2019-03-01T11:39:38.662Z,24.77
2019-03-01T11:42:06.099Z,21.90
2019-03-01T11:44:33.420Z,20.95
2019-03-01T11:47:00.731Z,23.80
2019-03-01T11:49:28.196Z,20.60
2019-03-01T11:51:55.477Z,20.23
2019-03-01T11:54:22.761Z,20.12
2019-03-01T11:56:50.067Z,18.73
2019-03-01T11:59:17.371Z,21.17
2019-03-01T12:01:44.728Z,21.00
2019-03-01T12:04:12.045Z,19.92
2019-03-01T12:06:39.366Z,21.05
2019-03-01T12:09:06.959Z,23.02
2019-03-01T12:11:34.343Z,26.33
2019-03-01T12:14:01.709Z,24.45
2019-03-01T12:16:29.183Z,23.10
2019-03-01T12:18:56.560Z,24.02
2019-03-01T12:21:23.995Z,24.65
2019-03-01T12:23:51.295Z,26.45
2019-03-01T12:26:24.681Z,26.70
2019-03-01T12:28:51.973Z,25.32
2019-03-01T12:31:19.286Z,29.25
2019-03-01T12:33:46.610Z,26.85
2019-03-01T12:36:13.893Z,27.40
2019-03-01T12:38:41.201Z,31.70
2019-03-01T12:41:08.500Z,28.92
2019-03-01T12:43:35.825Z,32.65
2019-03-01T12:46:03.212Z,30.62
2019-03-01T12:48:30.545Z,31.97
2019-03-01T12:50:57.971Z,32.23
2019-03-01T12:53:25.297Z,30.75
2019-03-01T12:55:52.642Z,29.12
2019-03-01T12:58:20.048Z,25.62
2019-03-01T13:00:47.343Z,25.95
2019-03-01T13:03:14.640Z,24.30
2019-03-01T13:05:42.018Z,22.15
2019-03-01T13:08:12.458Z,21.52
2019-03-01T13:10:40.340Z,24.05
2019-03-01T13:13:08.516Z,23.30
2019-03-01T13:15:36.198Z,25.23
2019-03-01T13:18:03.766Z,23.75
2019-03-01T13:20:33.850Z,23.95
2019-03-01T13:23:01.034Z,23.25
2019-03-01T13:25:30.153Z,22.10
2019-03-01T13:28:02.283Z,22.80
2019-03-01T13:30:35.693Z,21.02
2019-03-01T13:33:04.034Z,18.27
2019-03-01T13:35:31.324Z,17.60
2019-03-01T13:37:58.631Z,14.35
2019-03-01T13:40:25.996Z,14.65
2019-03-01T13:42:53.667Z,15.65
2019-03-01T13:45:22.094Z,12.90
2019-03-01T13:47:49.476Z,13.90
2019-03-01T13:50:17.759Z,13.08
2019-03-01T13:52:45.055Z,12.58
2019-03-01T13:55:14.813Z,12.88
2019-03-01T13:57:42.057Z,12.98
2019-03-01T14:00:16.340Z,13.55
2019-03-01T14:02:47.084Z,14.15
2019-03-01T14:05:13.330Z,15.15
2019-03-01T14:07:41.870Z,14.35
2019-03-01T14:10:10.562Z,12.75
2019-03-01T14:12:37.996Z,13.00
2019-03-01T14:15:06.833Z,12.60
2019-03-01T14:17:34.135Z,12.33
2019-03-01T14:20:01.459Z,12.15
2019-03-01T14:22:28.834Z,10.70
2019-03-01T14:24:56.272Z,10.72
2019-03-01T14:27:26.327Z,9.88
2019-03-01T14:29:54.119Z,10.28
2019-03-01T14:32:21.912Z,9.30
2019-03-01T14:34:49.431Z,12.20
2019-03-01T14:37:18.586Z,9.43
2019-03-01T14:39:46.130Z,8.48
2019-03-01T14:42:13.566Z,8.35
2019-03-01T14:44:40.882Z,9.03
2019-03-01T14:47:08.275Z,7.55
2019-03-01T14:49:44.726Z,7.87
2019-03-01T14:52:12.392Z,6.90
2019-03-01T14:54:41.831Z,6.70
2019-03-01T14:57:10.048Z,7.30
2019-03-01T14:59:39.534Z,7.05
2019-03-01T15:02:14.111Z,6.75
2019-03-01T15:04:41.622Z,6.15
2019-03-01T15:07:09.006Z,6.20
2019-03-01T15:09:36.309Z,6.78
2019-03-01T15:12:03.727Z,6.47
2019-03-01T15:14:31.060Z,6.30
2019-03-01T15:16:58.348Z,6.25
2019-03-01T15:19:25.676Z,5.80
2019-03-01T15:21:53.026Z,6.28
2019-03-01T15:24:20.422Z,6.42
2019-03-01T15:26:47.872Z,5.55
2019-03-01T15:29:15.235Z,5.40
2019-03-01T15:31:42.568Z,5.65
2019-03-01T15:34:09.869Z,5.85
2019-03-01T15:36:37.392Z,5.25
2019-03-01T15:39:05.578Z,5.75
2019-03-01T15:41:32.895Z,5.55
2019-03-01T15:44:00.267Z,5.25
2019-03-01T15:46:27.650Z,5.53
2019-03-01T15:48:54.945Z,4.80
2019-03-01T15:51:22.381Z,4.85
2019-03-01T15:53:49.727Z,6.20
2019-03-01T15:56:17.135Z,6.28
2019-03-01T15:58:46.355Z,6.17
2019-03-01T16:01:13.726Z,7.05
2019-03-01T16:03:41.048Z,6.95
2019-03-01T16:06:10.561Z,5.90
2019-03-01T16:08:37.631Z,7.58
2019-03-01T16:11:04.994Z,7.40
2019-03-01T16:13:32.361Z,6.97
2019-03-01T16:15:59.684Z,7.97
2019-03-01T16:18:28.522Z,7.15
2019-03-01T16:20:55.845Z,7.90
2019-03-01T16:23:23.278Z,7.78
2019-03-01T16:25:53.146Z,6.60
2019-03-01T16:28:21.689Z,6.85
2019-03-01T16:30:56.827Z,6.67
2019-03-01T16:33:26.030Z,6.05
2019-03-01T16:35:53.341Z,6.22
2019-03-01T16:38:20.637Z,6.47
2019-03-01T16:40:47.921Z,5.90
2019-03-01T16:43:16.894Z,6.70
2019-03-01T16:45:44.322Z,6.95
2019-03-01T16:48:13.571Z,7.17
2019-03-01T16:50:45.393Z,6.72
2019-03-01T16:56:02.718Z,6.42
2019-03-01T16:58:30.049Z,7.30
2019-03-01T17:00:57.527Z,6.78
2019-03-01T17:03:25.104Z,7.50
2019-03-01T17:05:52.735Z,7.05
2019-03-01T17:08:20.374Z,8.25
2019-03-01T17:10:47.940Z,7.70
2019-03-01T17:13:15.441Z,7.85
2019-03-01T17:15:45.531Z,8.75
2019-03-01T17:18:12.458Z,7.47
2019-03-01T17:20:39.876Z,7.37
2019-03-01T17:23:07.247Z,7.97
2019-03-01T17:25:34.669Z,7.78
2019-03-01T17:28:02.543Z,7.85
2019-03-01T17:30:30.687Z,8.08
2019-03-01T17:32:58.839Z,8.65
2019-03-01T17:35:26.141Z,7.90
2019-03-01T17:37:55.629Z,14.90
2019-03-01T18:01:04.288Z,9.33
2019-03-01T18:03:31.727Z,9.45
2019-03-01T18:05:59.044Z,8.95
2019-03-01T18:08:26.417Z,8.45
2019-03-01T18:10:53.731Z,8.55
2019-03-01T18:13:21.003Z,9.03
2019-03-01T18:15:49.613Z,9.33
2019-03-01T18:18:16.988Z,8.90
2019-03-01T18:20:44.262Z,10.25
2019-03-01T18:23:11.557Z,9.10
2019-03-01T18:25:38.922Z,9.80
2019-03-01T18:28:06.202Z,8.55
2019-03-01T18:30:36.218Z,7.85
2019-03-01T18:33:03.509Z,6.62
2019-03-01T18:35:30.876Z,7.67
2019-03-01T18:37:58.252Z,7.62
2019-03-01T18:40:25.675Z,7.33
2019-03-01T18:42:53.056Z,6.37
2019-03-01T18:45:20.991Z,7.35
2019-03-01T18:47:48.362Z,6.42
2019-03-01T18:50:17.155Z,7.47
2019-03-01T18:52:44.567Z,6.20
2019-03-01T18:55:13.737Z,6.85
2019-03-01T18:57:41.070Z,7.25
2019-03-01T19:00:15.657Z,7.55
2019-03-01T19:02:42.955Z,6.62
2019-03-01T19:05:10.296Z,6.30
2019-03-01T19:07:37.581Z,7.40
2019-03-01T19:10:06.776Z,6.22
2019-03-01T19:12:34.275Z,7.58
2019-03-01T19:15:01.602Z,6.37
2019-03-01T19:17:28.897Z,5.95
2019-03-01T19:19:57.774Z,6.72
2019-03-01T19:22:28.253Z,6.70
2019-03-01T19:24:54.750Z,6.80
2019-03-01T19:27:22.043Z,6.53
2019-03-01T19:29:49.404Z,6.70
2019-03-01T19:32:16.756Z,6.55
2019-03-01T19:34:44.067Z,7.42
2019-03-01T19:37:13.350Z,8.03
2019-03-01T19:39:40.531Z,7.70
2019-03-01T19:42:07.806Z,6.72
2019-03-01T19:44:35.126Z,7.17
2019-03-01T19:47:02.473Z,7.42
2019-03-01T19:49:29.768Z,6.92
2019-03-01T19:51:57.058Z,7.15
2019-03-01T19:54:24.391Z,8.18
2019-03-01T19:56:52.762Z,7.35
2019-03-01T19:59:20.063Z,8.10
2019-03-01T20:01:49.497Z,7.90
2019-03-01T20:04:17.787Z,6.65
2019-03-01T20:06:45.513Z,7.97
2019-03-01T20:09:12.962Z,8.35
2019-03-01T20:11:40.348Z,10.55
2019-03-01T20:14:07.744Z,8.10
2019-03-01T20:16:35.198Z,8.05
2019-03-01T20:19:02.646Z,9.23
2019-03-01T20:21:30.114Z,14.50
2019-03-01T20:23:57.623Z,15.38
2019-03-01T20:26:26.675Z,13.20
2019-03-01T20:28:54.356Z,9.40
2019-03-01T20:31:23.660Z,10.80
2019-03-01T20:33:53.432Z,13.98
2019-03-01T20:36:20.851Z,6.95
2019-03-01T20:38:48.360Z,7.80
2019-03-01T20:41:15.791Z,8.73
2019-03-01T20:43:43.333Z,9.85
2019-03-01T20:46:10.823Z,8.18
2019-03-01T20:48:38.542Z,7.00
2019-03-01T20:51:06.317Z,8.33
2019-03-01T20:53:33.885Z,7.03
2019-03-01T20:56:01.303Z,7.37
2019-03-01T20:58:29.568Z,6.30
2019-03-01T21:00:58.857Z,6.45
2019-03-01T21:03:29.836Z,6.30
2019-03-01T21:05:55.214Z,6.40
2019-03-01T21:08:22.702Z,6.30
2019-03-01T21:10:50.789Z,6.12
2019-03-01T21:13:18.477Z,5.65
2019-03-01T21:15:45.777Z,5.95
2019-03-01T21:18:13.309Z,6.97
2019-03-01T21:20:40.809Z,6.25
2019-03-01T21:23:08.179Z,6.10
2019-03-01T21:25:39.415Z,5.92
2019-03-01T21:28:04.942Z,5.75
2019-03-01T21:30:35.043Z,6.25
2019-03-01T21:33:02.621Z,5.75
2019-03-01T21:35:30.102Z,6.22
2019-03-01T21:37:57.583Z,6.60
2019-03-01T21:40:25.119Z,6.45
2019-03-01T21:42:56.021Z,6.35
2019-03-01T21:45:22.542Z,6.40
2019-03-01T21:47:50.091Z,5.58
2019-03-01T21:50:19.098Z,6.05
2019-03-01T21:52:46.632Z,7.10
2019-03-01T21:55:21.318Z,6.53
2019-03-01T21:57:48.804Z,6.80
2019-03-01T22:00:31.998Z,6.22
2019-03-01T22:02:59.211Z,6.08
2019-03-01T22:05:26.601Z,5.97
2019-03-01T22:07:54.004Z,6.50
2019-03-01T22:10:21.380Z,7.10
2019-03-01T22:12:48.705Z,6.33
2019-03-01T22:15:17.604Z,5.87
2019-03-01T22:17:45.487Z,6.05
2019-03-01T22:20:14.046Z,5.83
2019-03-01T22:22:42.382Z,7.20
2019-03-01T22:25:10.914Z,8.98
2019-03-01T22:27:38.224Z,6.53
2019-03-01T22:30:10.248Z,6.30
2019-03-01T22:32:37.540Z,6.30
2019-03-01T22:35:08.582Z,6.17
2019-03-01T22:37:37.422Z,6.42
2019-03-01T22:40:06.572Z,6.10
2019-03-01T22:42:33.948Z,6.35
2019-03-01T22:45:01.313Z,7.08
2019-03-01T22:47:28.963Z,5.70
2019-03-01T22:49:56.254Z,5.78
2019-03-01T22:52:26.604Z,5.70
2019-03-01T22:54:53.319Z,6.08
2019-03-01T22:57:25.968Z,7.05
2019-03-01T22:59:52.210Z,6.20
2019-03-01T23:02:20.145Z,6.20
2019-03-01T23:04:47.524Z,6.47
2019-03-01T23:07:14.824Z,6.72
2019-03-01T23:09:42.731Z,6.00
2019-03-01T23:12:11.647Z,6.10
2019-03-01T23:14:38.985Z,6.10
2019-03-01T23:17:06.288Z,5.80
2019-03-01T23:19:33.582Z,9.00
2019-03-01T23:22:00.942Z,5.70
2019-03-01T23:24:28.243Z,5.78
2019-03-01T23:26:56.874Z,6.05
2019-03-01T23:29:24.596Z,5.58
2019-03-01T23:31:51.886Z,7.05
2019-03-01T23:34:19.168Z,5.72
2019-03-01T23:36:46.450Z,6.60
2019-03-01T23:39:13.776Z,6.90
2019-03-01T23:41:43.515Z,5.75
2019-03-01T23:44:10.066Z,6.00
2019-03-01T23:46:37.371Z,5.87
2019-03-01T23:49:06.462Z,6.40
2019-03-01T23:51:33.630Z,6.33
2019-03-01T23:54:00.930Z,5.62
2019-03-01T23:56:29.719Z,5.90
2019-03-01T23:58:57.230Z,5.83
